Evanston-Uinta County Airport-Burns Field Evanston US
ICAO: KEVW
IATA: EVW
Category: Medium
Scheduled Services: No

Elevation: 7143 ft
TransAlt. 18000 ft.

Airport Communications:
ASOS:120
SALT LAKE CITY CNTR:127.7
CTAF/UNICOM:122.8

KEVW Zoom In..

Runways:

(A) RW 05 length 7300 ft width 100 ft
---- / hdg 54

(B) RW 23 length 7300 ft width 100 ft
ILS 108.90 / hdg 234

Location; KEVW
Day. 19 / Time. 20.53 Zulu
* Altimeter: 30.30
* Temperature: 31° c. 87.8°f.
* Wind from: 290° Speed 12 kn with Gusts up to 22 kn.
Dewpoint: -03° c.
Visibility: 10 Statute Miles.
Clouds: Clear (automated report).

KEVW 192053Z AUTO 29012G22KT 10SM CLR 31/M03 A3030 RMK AO2 SLP141 T03111028 56011


Wind From 290°
Speed 12 kn.

 
 
jpsmedia.com for Web Design worldairports.se 2018   terms of use